sensor_id;sensor_type;location;lat;lon;timestamp;pressure;altitude;pressure_sealevel;temperature;humidity
15444;BME280;7822;48.146;11.576;2024-01-30T00:01:29;96454.06;;;13.69;49.09
15444;BME280;7822;48.146;11.576;2024-01-30T00:03:58;96462.72;;;13.69;48.81
15444;BME280;7822;48.146;11.576;2024-01-30T00:06:26;96459.16;;;13.70;49.34
15444;BME280;7822;48.146;11.576;2024-01-30T00:08:54;96455.75;;;13.70;48.95
15444;BME280;7822;48.146;11.576;2024-01-30T00:11:21;96462.72;;;13.69;49.17
15444;BME280;7822;48.146;11.576;2024-01-30T00:13:49;96457.50;;;13.69;49.07
15444;BME280;7822;48.146;11.576;2024-01-30T00:16:20;96466.25;;;13.68;48.72
15444;BME280;7822;48.146;11.576;2024-01-30T00:18:47;96464.50;;;13.69;48.79
15444;BME280;7822;48.146;11.576;2024-01-30T00:21:16;96463.66;;;13.68;48.90
15444;BME280;7822;48.146;11.576;2024-01-30T00:23:44;96465.47;;;13.68;48.65
15444;BME280;7822;48.146;11.576;2024-01-30T00:26:11;96462.84;;;13.68;48.94
15444;BME280;7822;48.146;11.576;2024-01-30T00:28:39;96468.88;;;13.68;49.03
15444;BME280;7822;48.146;11.576;2024-01-30T00:31:06;96468.06;;;13.68;48.64
15444;BME280;7822;48.146;11.576;2024-01-30T00:33:34;96464.63;;;13.67;48.56
15444;BME280;7822;48.146;11.576;2024-01-30T00:36:01;96466.25;;;13.68;48.72
15444;BME280;7822;48.146;11.576;2024-01-30T00:38:30;96462.84;;;13.68;48.87
15444;BME280;7822;48.146;11.576;2024-01-30T00:40:58;96468.06;;;13.68;48.88
15444;BME280;7822;48.146;11.576;2024-01-30T00:43:25;96463.78;;;13.67;48.57
15444;BME280;7822;48.146;11.576;2024-01-30T00:45:53;96471.59;;;13.67;48.71
15444;BME280;7822;48.146;11.576;2024-01-30T00:48:21;96469.84;;;13.67;48.39
15444;BME280;7822;48.146;11.576;2024-01-30T00:50:48;96469.00;;;13.67;48.43
15444;BME280;7822;48.146;11.576;2024-01-30T00:53:16;96464.75;;;13.66;48.74
15444;BME280;7822;48.146;11.576;2024-01-30T00:55:44;96466.38;;;13.67;48.48
15444;BME280;7822;48.146;11.576;2024-01-30T00:58:12;96472.56;;;13.66;48.69
15444;BME280;7822;48.146;11.576;2024-01-30T01:00:39;96473.38;;;13.66;48.69
15444;BME280;7822;48.146;11.576;2024-01-30T01:03:07;96471.72;;;13.65;48.63
15444;BME280;7822;48.146;11.576;2024-01-30T01:05:35;96467.34;;;13.66;48.76
15444;BME280;7822;48.146;11.576;2024-01-30T01:08:03;96461.28;;;13.65;48.58
15444;BME280;7822;48.146;11.576;2024-01-30T01:10:30;96469.13;;;13.65;48.64
15444;BME280;7822;48.146;11.576;2024-01-30T01:12:59;96475.16;;;13.66;48.79
15444;BME280;7822;48.146;11.576;2024-01-30T01:15:27;96469.94;;;13.66;48.76
15444;BME280;7822;48.146;11.576;2024-01-30T01:17:56;96476.94;;;13.65;48.93
15444;BME280;7822;48.146;11.576;2024-01-30T01:20:23;96468.41;;;13.63;48.57
15444;BME280;7822;48.146;11.576;2024-01-30T01:22:51;96472.78;;;13.63;48.48
15444;BME280;7822;48.146;11.576;2024-01-30T01:25:19;96465.78;;;13.63;48.30
15444;BME280;7822;48.146;11.576;2024-01-30T01:27:46;96470.16;;;13.63;48.67
15444;BME280;7822;48.146;11.576;2024-01-30T01:30:19;96472.78;;;13.63;48.28
15444;BME280;7822;48.146;11.576;2024-01-30T01:32:48;96475.25;;;13.64;48.58
15444;BME280;7822;48.146;11.576;2024-01-30T01:35:21;96469.31;;;13.62;48.43
15444;BME280;7822;48.146;11.576;2024-01-30T01:37:50;96466.72;;;13.62;48.22
15444;BME280;7822;48.146;11.576;2024-01-30T01:40:22;96471.00;;;13.63;48.45
15444;BME280;7822;48.146;11.576;2024-01-30T01:42:50;96470.16;;;13.63;48.22
15444;BME280;7822;48.146;11.576;2024-01-30T01:45:19;96466.72;;;13.62;48.22
15444;BME280;7822;48.146;11.576;2024-01-30T01:47:48;96461.50;;;13.62;48.48
15444;BME280;7822;48.146;11.576;2024-01-30T01:50:17;96458.06;;;13.62;48.40
15444;BME280;7822;48.146;11.576;2024-01-30T01:52:46;96460.66;;;13.62;48.26
15444;BME280;7822;48.146;11.576;2024-01-30T01:55:14;96465.78;;;13.63;48.44
15444;BME280;7822;48.146;11.576;2024-01-30T01:57:43;96461.50;;;13.62;48.31
15444;BME280;7822;48.146;11.576;2024-01-30T02:00:11;96458.91;;;13.62;48.49
15444;BME280;7822;48.146;11.576;2024-01-30T02:02:41;96465.88;;;13.62;48.12
15444;BME280;7822;48.146;11.576;2024-01-30T02:05:08;96458.06;;;13.62;48.20
15444;BME280;7822;48.146;11.576;2024-01-30T02:07:35;96461.63;;;13.61;48.38
15444;BME280;7822;48.146;11.576;2024-01-30T02:10:03;96465.06;;;13.61;47.99
15444;BME280;7822;48.146;11.576;2024-01-30T02:12:31;96462.47;;;13.61;48.00
15444;BME280;7822;48.146;11.576;2024-01-30T02:14:59;96465.06;;;13.61;48.27
15444;BME280;7822;48.146;11.576;2024-01-30T02:17:27;96461.63;;;13.61;48.18
15444;BME280;7822;48.146;11.576;2024-01-30T02:19:56;96457.25;;;13.61;48.38
15444;BME280;7822;48.146;11.576;2024-01-30T02:22:25;96461.63;;;13.61;48.18
15444;BME280;7822;48.146;11.576;2024-01-30T02:24:52;96463.38;;;13.60;48.33
15444;BME280;7822;48.146;11.576;2024-01-30T02:27:20;96463.38;;;13.60;48.22
15444;BME280;7822;48.146;11.576;2024-01-30T02:29:48;96466.00;;;13.60;48.34
15444;BME280;7822;48.146;11.576;2024-01-30T02:32:15;96468.59;;;13.60;48.24
15444;BME280;7822;48.146;11.576;2024-01-30T02:34:43;96467.69;;;13.61;48.28
15444;BME280;7822;48.146;11.576;2024-01-30T02:37:10;96460.66;;;13.62;48.34
15444;BME280;7822;48.146;11.576;2024-01-30T02:39:39;96455.56;;;13.60;48.12
15444;BME280;7822;48.146;11.576;2024-01-30T02:42:07;96456.41;;;13.61;47.83
15444;BME280;7822;48.146;11.576;2024-01-30T02:44:34;96460.78;;;13.60;48.06
15444;BME280;7822;48.146;11.576;2024-01-30T02:47:02;96457.34;;;13.60;48.13
15444;BME280;7822;48.146;11.576;2024-01-30T02:49:30;96463.38;;;13.60;47.98
15444;BME280;7822;48.146;11.576;2024-01-30T02:51:57;96459.00;;;13.61;48.08
15444;BME280;7822;48.146;11.576;2024-01-30T02:54:25;96451.19;;;13.61;48.25
15444;BME280;7822;48.146;11.576;2024-01-30T02:56:54;96453.69;;;13.62;48.24
15444;BME280;7822;48.146;11.576;2024-01-30T02:59:21;96455.56;;;13.60;48.07
15444;BME280;7822;48.146;11.576;2024-01-30T03:01:49;96452.13;;;13.60;47.99
15444;BME280;7822;48.146;11.576;2024-01-30T03:04:16;96452.13;;;13.60;48.02
15444;BME280;7822;48.146;11.576;2024-01-30T03:06:45;96449.50;;;13.60;47.98
15444;BME280;7822;48.146;11.576;2024-01-30T03:09:15;96448.72;;;13.59;48.00
15444;BME280;7822;48.146;11.576;2024-01-30T03:11:42;96443.38;;;13.61;48.25
15444;BME280;7822;48.146;11.576;2024-01-30T03:14:11;96447.75;;;13.60;48.05
15444;BME280;7822;48.146;11.576;2024-01-30T03:16:39;96439.09;;;13.60;48.22
15444;BME280;7822;48.146;11.576;2024-01-30T03:19:06;96439.09;;;13.60;48.06
15444;BME280;7822;48.146;11.576;2024-01-30T03:21:35;96440.88;;;13.59;47.91
15444;BME280;7822;48.146;11.576;2024-01-30T03:24:03;96438.28;;;13.59;48.03
15444;BME280;7822;48.146;11.576;2024-01-30T03:26:30;96439.09;;;13.60;48.18
15444;BME280;7822;48.146;11.576;2024-01-30T03:28:58;96446.09;;;13.59;47.99
15444;BME280;7822;48.146;11.576;2024-01-30T03:31:27;96442.66;;;13.59;47.85
15444;BME280;7822;48.146;11.576;2024-01-30T03:33:54;96436.59;;;13.58;47.77
15444;BME280;7822;48.146;11.576;2024-01-30T03:36:22;96437.44;;;13.59;47.94
15444;BME280;7822;48.146;11.576;2024-01-30T03:38:49;96429.72;;;13.57;47.87
15444;BME280;7822;48.146;11.576;2024-01-30T03:41:17;96431.50;;;13.57;47.52
15444;BME280;7822;48.146;11.576;2024-01-30T03:43:44;96430.56;;;13.58;47.49
15444;BME280;7822;48.146;11.576;2024-01-30T03:46:12;96427.09;;;13.57;47.47
15444;BME280;7822;48.146;11.576;2024-01-30T03:48:41;96429.72;;;13.57;47.70
15444;BME280;7822;48.146;11.576;2024-01-30T03:51:09;96432.31;;;13.57;47.69
15444;BME280;7822;48.146;11.576;2024-01-30T03:53:40;96429.72;;;13.57;47.68
15444;BME280;7822;48.146;11.576;2024-01-30T03:56:08;96430.66;;;13.56;47.49
15444;BME280;7822;48.146;11.576;2024-01-30T03:58:36;96438.38;;;13.58;47.56
15444;BME280;7822;48.146;11.576;2024-01-30T04:01:03;96443.59;;;13.58;47.39
15444;BME280;7822;48.146;11.576;2024-01-30T04:03:31;96446.19;;;13.58;47.41
15444;BME280;7822;48.146;11.576;2024-01-30T04:06:00;96434.13;;;13.57;47.77
15444;BME280;7822;48.146;11.576;2024-01-30T04:08:27;96433.28;;;13.56;47.53
15444;BME280;7822;48.146;11.576;2024-01-30T04:10:55;96435.03;;;13.56;47.12
15444;BME280;7822;48.146;11.576;2024-01-30T04:13:22;96436.72;;;13.57;47.17
15444;BME280;7822;48.146;11.576;2024-01-30T04:15:50;96433.28;;;13.56;47.47
15444;BME280;7822;48.146;11.576;2024-01-30T04:18:18;96433.28;;;13.56;47.56
15444;BME280;7822;48.146;11.576;2024-01-30T04:20:45;96430.66;;;13.56;47.57
15444;BME280;7822;48.146;11.576;2024-01-30T04:23:14;96431.50;;;13.57;47.73
15444;BME280;7822;48.146;11.576;2024-01-30T04:25:42;96432.44;;;13.56;47.66
15444;BME280;7822;48.146;11.576;2024-01-30T04:28:09;96437.66;;;13.56;47.48
15444;BME280;7822;48.146;11.576;2024-01-30T04:30:38;96434.22;;;13.55;47.59
15444;BME280;7822;48.146;11.576;2024-01-30T04:33:05;96431.59;;;13.55;47.63
15444;BME280;7822;48.146;11.576;2024-01-30T04:35:33;96438.63;;;13.55;47.49
15444;BME280;7822;48.146;11.576;2024-01-30T04:38:01;96441.09;;;13.56;47.50
15444;BME280;7822;48.146;11.576;2024-01-30T04:40:30;96432.44;;;13.56;47.63
15444;BME280;7822;48.146;11.576;2024-01-30T04:42:57;96434.22;;;13.55;47.21
15444;BME280;7822;48.146;11.576;2024-01-30T04:45:25;96435.88;;;13.56;47.39
15444;BME280;7822;48.146;11.576;2024-01-30T04:47:52;96427.22;;;13.56;47.46
15444;BME280;7822;48.146;11.576;2024-01-30T04:50:20;96428.19;;;13.55;47.42
15444;BME280;7822;48.146;11.576;2024-01-30T04:52:48;96422.97;;;13.55;47.30
15444;BME280;7822;48.146;11.576;2024-01-30T04:55:15;96427.22;;;13.56;47.42
15444;BME280;7822;48.146;11.576;2024-01-30T04:57:47;96428.19;;;13.55;47.63
15444;BME280;7822;48.146;11.576;2024-01-30T05:00:15;96427.34;;;13.54;47.43
15444;BME280;7822;48.146;11.576;2024-01-30T05:02:43;96427.34;;;13.54;47.48
15444;BME280;7822;48.146;11.576;2024-01-30T05:05:10;96429.00;;;13.55;47.58
15444;BME280;7822;48.146;11.576;2024-01-30T05:07:38;96428.19;;;13.55;47.39
15444;BME280;7822;48.146;11.576;2024-01-30T05:10:06;96431.59;;;13.55;47.42
15444;BME280;7822;48.146;11.576;2024-01-30T05:12:34;96432.44;;;13.56;47.66
15444;BME280;7822;48.146;11.576;2024-01-30T05:15:03;96436.72;;;13.57;47.47
15444;BME280;7822;48.146;11.576;2024-01-30T05:17:31;96438.38;;;13.58;47.42
15444;BME280;7822;48.146;11.576;2024-01-30T05:19:59;96439.22;;;13.58;47.44
15444;BME280;7822;48.146;11.576;2024-01-30T05:22:27;96440.97;;;13.58;47.36
15444;BME280;7822;48.146;11.576;2024-01-30T05:24:54;96443.59;;;13.58;47.18
15444;BME280;7822;48.146;11.576;2024-01-30T05:27:22;96444.41;;;13.58;47.57
15444;BME280;7822;48.146;11.576;2024-01-30T05:29:49;96442.75;;;13.57;47.32
15444;BME280;7822;48.146;11.576;2024-01-30T05:32:18;96447.03;;;13.58;47.52
15444;BME280;7822;48.146;11.576;2024-01-30T05:34:46;96440.13;;;13.57;47.35
15444;BME280;7822;48.146;11.576;2024-01-30T05:37:14;96439.22;;;13.58;47.48
15444;BME280;7822;48.146;11.576;2024-01-30T05:39:43;96441.81;;;13.58;47.28
15444;BME280;7822;48.146;11.576;2024-01-30T05:42:11;96440.03;;;13.59;47.43
15444;BME280;7822;48.146;11.576;2024-01-30T05:44:38;96451.41;;;13.58;47.44
15444;BME280;7822;48.146;11.576;2024-01-30T05:47:06;96449.63;;;13.58;47.43
15444;BME280;7822;48.146;11.576;2024-01-30T05:49:35;96457.47;;;13.58;47.14
15444;BME280;7822;48.146;11.576;2024-01-30T05:52:03;96454.84;;;13.58;47.08
15444;BME280;7822;48.146;11.576;2024-01-30T05:54:31;96454.00;;;13.58;46.90
15444;BME280;7822;48.146;11.576;2024-01-30T05:56:58;96452.38;;;13.57;47.00
15444;BME280;7822;48.146;11.576;2024-01-30T05:59:26;96459.22;;;13.58;46.86
15444;BME280;7822;48.146;11.576;2024-01-30T06:01:53;96455.78;;;13.57;46.49
15444;BME280;7822;48.146;11.576;2024-01-30T06:04:21;96458.38;;;13.57;46.54
15444;BME280;7822;48.146;11.576;2024-01-30T06:06:50;96461.84;;;13.58;46.46
15444;BME280;7822;48.146;11.576;2024-01-30T06:09:18;96461.97;;;13.56;46.54
15444;BME280;7822;48.146;11.576;2024-01-30T06:11:45;96465.41;;;13.57;46.45
15444;BME280;7822;48.146;11.576;2024-01-30T06:14:13;96461.13;;;13.56;46.50
15444;BME280;7822;48.146;11.576;2024-01-30T06:16:40;96454.97;;;13.57;46.19
15444;BME280;7822;48.146;11.576;2024-01-30T06:19:08;96459.34;;;13.56;46.44
15444;BME280;7822;48.146;11.576;2024-01-30T06:21:35;96459.47;;;13.55;46.06
15444;BME280;7822;48.146;11.576;2024-01-30T06:24:06;96461.13;;;13.56;45.78
15444;BME280;7822;48.146;11.576;2024-01-30T06:26:34;96451.66;;;13.55;45.41
15444;BME280;7822;48.146;11.576;2024-01-30T06:29:01;96460.28;;;13.55;46.29
15444;BME280;7822;48.146;11.576;2024-01-30T06:31:29;96461.97;;;13.56;46.42
15444;BME280;7822;48.146;11.576;2024-01-30T06:33:57;96451.53;;;13.56;46.89
15444;BME280;7822;48.146;11.576;2024-01-30T06:36:25;96459.13;;;13.59;47.11
15444;BME280;7822;48.146;11.576;2024-01-30T06:38:52;96464.34;;;13.59;47.27
15444;BME280;7822;48.146;11.576;2024-01-30T06:41:21;96471.22;;;13.60;47.42
15444;BME280;7822;48.146;11.576;2024-01-30T06:43:49;96467.75;;;13.60;47.65
15444;BME280;7822;48.146;11.576;2024-01-30T06:46:17;96484.13;;;13.62;47.80
15444;BME280;7822;48.146;11.576;2024-01-30T06:48:44;96485.94;;;13.61;47.59
15444;BME280;7822;48.146;11.576;2024-01-30T06:51:12;96483.19;;;13.63;47.81
15444;BME280;7822;48.146;11.576;2024-01-30T06:53:43;96478.81;;;13.63;48.09
15444;BME280;7822;48.146;11.576;2024-01-30T06:56:11;96478.81;;;13.63;47.99
15444;BME280;7822;48.146;11.576;2024-01-30T06:58:39;96483.09;;;13.64;48.34
15444;BME280;7822;48.146;11.576;2024-01-30T07:01:07;96476.22;;;13.63;48.38
15444;BME280;7822;48.146;11.576;2024-01-30T07:03:36;96477.78;;;13.66;48.32
15444;BME280;7822;48.146;11.576;2024-01-30T07:06:04;96475.97;;;13.66;48.38
15444;BME280;7822;48.146;11.576;2024-01-30T07:08:31;96480.25;;;13.67;48.58
15444;BME280;7822;48.146;11.576;2024-01-30T07:10:59;96482.88;;;13.67;48.48
15444;BME280;7822;48.146;11.576;2024-01-30T07:13:27;96473.38;;;13.66;48.56
15444;BME280;7822;48.146;11.576;2024-01-30T07:15:56;96478.50;;;13.68;48.54
15444;BME280;7822;48.146;11.576;2024-01-30T07:18:24;96475.06;;;13.67;48.60
15444;BME280;7822;48.146;11.576;2024-01-30T07:20:51;96479.31;;;13.68;48.58
15444;BME280;7822;48.146;11.576;2024-01-30T07:23:19;96480.25;;;13.67;48.85
15444;BME280;7822;48.146;11.576;2024-01-30T07:25:46;96487.97;;;13.69;48.64
15444;BME280;7822;48.146;11.576;2024-01-30T07:28:16;96491.41;;;13.69;48.73
15444;BME280;7822;48.146;11.576;2024-01-30T07:30:44;96488.81;;;13.69;48.77
15444;BME280;7822;48.146;11.576;2024-01-30T07:33:13;96491.41;;;13.69;48.75
15444;BME280;7822;48.146;11.576;2024-01-30T07:35:41;96497.47;;;13.70;48.73
15444;BME280;7822;48.146;11.576;2024-01-30T07:38:08;96498.41;;;13.69;48.74
15444;BME280;7822;48.146;11.576;2024-01-30T07:40:36;96485.34;;;13.69;49.00
15444;BME280;7822;48.146;11.576;2024-01-30T07:43:03;96491.41;;;13.69;48.95
15444;BME280;7822;48.146;11.576;2024-01-30T07:45:31;96493.19;;;13.69;49.07
15444;BME280;7822;48.146;11.576;2024-01-30T07:47:59;96490.56;;;13.69;48.96
15444;BME280;7822;48.146;11.576;2024-01-30T07:50:28;96502.69;;;13.70;49.32
15444;BME280;7822;48.146;11.576;2024-01-30T07:52:56;96492.25;;;13.70;49.11
15444;BME280;7822;48.146;11.576;2024-01-30T07:55:24;96503.50;;;13.70;49.20
15444;BME280;7822;48.146;11.576;2024-01-30T07:57:54;96494.88;;;13.70;49.31
15444;BME280;7822;48.146;11.576;2024-01-30T08:00:22;96500.88;;;13.70;49.33
15444;BME280;7822;48.146;11.576;2024-01-30T08:02:52;96513.94;;;13.70;49.24
15444;BME280;7822;48.146;11.576;2024-01-30T08:05:21;96502.56;;;13.71;49.61
15444;BME280;7822;48.146;11.576;2024-01-30T08:07:51;96503.50;;;13.70;49.38
15444;BME280;7822;48.146;11.576;2024-01-30T08:10:19;96505.16;;;13.71;49.42
15444;BME280;7822;48.146;11.576;2024-01-30T08:12:47;96506.94;;;13.71;49.39
15444;BME280;7822;48.146;11.576;2024-01-30T08:15:15;96513.84;;;13.72;49.50
15444;BME280;7822;48.146;11.576;2024-01-30T08:17:43;96511.22;;;13.72;49.51
15444;BME280;7822;48.146;11.576;2024-01-30T08:20:11;96512.16;;;13.71;49.35
15444;BME280;7822;48.146;11.576;2024-01-30T08:22:40;96513.00;;;13.71;49.49
15444;BME280;7822;48.146;11.576;2024-01-30T08:25:09;96509.53;;;13.71;49.68
15444;BME280;7822;48.146;11.576;2024-01-30T08:27:37;96513.00;;;13.71;49.52
15444;BME280;7822;48.146;11.576;2024-01-30T08:30:05;96507.78;;;13.71;49.60
15444;BME280;7822;48.146;11.576;2024-01-30T08:32:33;96509.47;;;13.72;49.84
15444;BME280;7822;48.146;11.576;2024-01-30T08:35:01;96502.56;;;13.71;49.55
15444;BME280;7822;48.146;11.576;2024-01-30T08:37:30;96502.56;;;13.71;49.77
15444;BME280;7822;48.146;11.576;2024-01-30T08:39:58;96502.56;;;13.71;49.76
15444;BME280;7822;48.146;11.576;2024-01-30T08:42:27;96496.41;;;13.72;49.92
15444;BME280;7822;48.146;11.576;2024-01-30T08:44:55;96500.78;;;13.72;49.58
15444;BME280;7822;48.146;11.576;2024-01-30T08:47:22;96507.78;;;13.71;49.77
15444;BME280;7822;48.146;11.576;2024-01-30T08:49:51;96505.16;;;13.71;49.77
15444;BME280;7822;48.146;11.576;2024-01-30T08:52:19;96504.25;;;13.72;49.95
15444;BME280;7822;48.146;11.576;2024-01-30T08:54:46;96506.84;;;13.72;49.87
15444;BME280;7822;48.146;11.576;2024-01-30T08:57:14;96504.25;;;13.72;49.91
15444;BME280;7822;48.146;11.576;2024-01-30T08:59:43;96499.03;;;13.72;49.86
15444;BME280;7822;48.146;11.576;2024-01-30T09:02:12;96506.84;;;13.72;49.89
15444;BME280;7822;48.146;11.576;2024-01-30T09:04:42;96509.47;;;13.72;49.85
15444;BME280;7822;48.146;11.576;2024-01-30T09:07:10;96503.41;;;13.72;49.74
15444;BME280;7822;48.146;11.576;2024-01-30T09:09:40;96506.94;;;13.71;49.97
15444;BME280;7822;48.146;11.576;2024-01-30T09:12:08;96516.31;;;13.73;49.92
15444;BME280;7822;48.146;11.576;2024-01-30T09:14:38;96515.47;;;13.73;49.84
15444;BME280;7822;48.146;11.576;2024-01-30T09:17:07;96525.00;;;13.74;49.97
15444;BME280;7822;48.146;11.576;2024-01-30T09:19:35;96518.09;;;13.73;49.96
15444;BME280;7822;48.146;11.576;2024-01-30T09:22:03;96526.75;;;13.73;49.99
15444;BME280;7822;48.146;11.576;2024-01-30T09:24:31;96527.47;;;13.75;50.14
15444;BME280;7822;48.146;11.576;2024-01-30T09:26:58;96531.03;;;13.74;50.16
15444;BME280;7822;48.146;11.576;2024-01-30T09:29:26;96538.75;;;13.76;50.10
15444;BME280;7822;48.146;11.576;2024-01-30T09:31:53;96531.84;;;13.75;49.95
15444;BME280;7822;48.146;11.576;2024-01-30T09:34:22;96530.00;;;13.77;50.10
15444;BME280;7822;48.146;11.576;2024-01-30T09:36:50;96527.38;;;13.77;50.07
15444;BME280;7822;48.146;11.576;2024-01-30T09:39:18;96527.38;;;13.77;50.23
15444;BME280;7822;48.146;11.576;2024-01-30T09:41:48;96527.38;;;13.77;50.15
15444;BME280;7822;48.146;11.576;2024-01-30T09:44:16;96530.00;;;13.77;50.16
15444;BME280;7822;48.146;11.576;2024-01-30T09:46:44;96535.22;;;13.77;50.23
15444;BME280;7822;48.146;11.576;2024-01-30T09:49:14;96528.09;;;13.79;50.46
15444;BME280;7822;48.146;11.576;2024-01-30T09:51:46;96527.25;;;13.78;50.37
15444;BME280;7822;48.146;11.576;2024-01-30T09:54:15;96530.81;;;13.77;50.32
15444;BME280;7822;48.146;11.576;2024-01-30T09:56:43;96527.38;;;13.77;50.26
15444;BME280;7822;48.146;11.576;2024-01-30T09:59:10;96529.03;;;13.78;50.54
15444;BME280;7822;48.146;11.576;2024-01-30T10:01:38;96536.00;;;13.77;50.21
15444;BME280;7822;48.146;11.576;2024-01-30T10:04:06;96531.53;;;13.79;50.42
15444;BME280;7822;48.146;11.576;2024-01-30T10:06:34;96529.03;;;13.78;50.55
15444;BME280;7822;48.146;11.576;2024-01-30T10:09:03;96522.06;;;13.78;50.39
15444;BME280;7822;48.146;11.576;2024-01-30T10:11:31;96529.88;;;13.78;50.57
15444;BME280;7822;48.146;11.576;2024-01-30T10:13:59;96526.44;;;13.78;50.70
15444;BME280;7822;48.146;11.576;2024-01-30T10:16:27;96525.50;;;13.79;50.63
15444;BME280;7822;48.146;11.576;2024-01-30T10:18:55;96530.72;;;13.79;50.78
15444;BME280;7822;48.146;11.576;2024-01-30T10:21:23;96522.88;;;13.79;50.82
15444;BME280;7822;48.146;11.576;2024-01-30T10:23:51;96517.66;;;13.79;50.60
15444;BME280;7822;48.146;11.576;2024-01-30T10:26:20;96527.25;;;13.78;50.66
15444;BME280;7822;48.146;11.576;2024-01-30T10:28:48;96516.00;;;13.78;50.68
15444;BME280;7822;48.146;11.576;2024-01-30T10:31:16;96516.84;;;13.78;50.79
15444;BME280;7822;48.146;11.576;2024-01-30T10:33:44;96510.78;;;13.78;50.71
15444;BME280;7822;48.146;11.576;2024-01-30T10:36:13;96509.84;;;13.79;50.85
15444;BME280;7822;48.146;11.576;2024-01-30T10:38:44;96507.25;;;13.79;50.55
15444;BME280;7822;48.146;11.576;2024-01-30T10:41:12;96506.41;;;13.78;50.93
15444;BME280;7822;48.146;11.576;2024-01-30T10:43:42;96498.56;;;13.78;50.77
15444;BME280;7822;48.146;11.576;2024-01-30T10:46:15;96488.97;;;13.79;50.94
15444;BME280;7822;48.146;11.576;2024-01-30T10:48:46;96490.75;;;13.78;50.80
15444;BME280;7822;48.146;11.576;2024-01-30T10:51:18;96495.84;;;13.80;51.04
15444;BME280;7822;48.146;11.576;2024-01-30T10:53:46;96489.78;;;13.79;51.06
15444;BME280;7822;48.146;11.576;2024-01-30T10:56:14;96486.38;;;13.79;51.08
15444;BME280;7822;48.146;11.576;2024-01-30T10:58:44;96478.56;;;13.79;51.24
15444;BME280;7822;48.146;11.576;2024-01-30T11:01:12;96485.41;;;13.80;50.70
15444;BME280;7822;48.146;11.576;2024-01-30T11:03:40;96480.19;;;13.80;51.26
15444;BME280;7822;48.146;11.576;2024-01-30T11:06:10;96474.16;;;13.79;51.12
15444;BME280;7822;48.146;11.576;2024-01-30T11:08:38;96471.53;;;13.79;51.02
15444;BME280;7822;48.146;11.576;2024-01-30T11:11:08;96470.59;;;13.80;51.14
15444;BME280;7822;48.146;11.576;2024-01-30T11:13:36;96473.22;;;13.80;51.34
15444;BME280;7822;48.146;11.576;2024-01-30T11:16:05;96472.38;;;13.80;51.13
15444;BME280;7822;48.146;11.576;2024-01-30T11:18:35;96465.38;;;13.80;51.28
15444;BME280;7822;48.146;11.576;2024-01-30T11:21:04;96466.22;;;13.81;51.13
15444;BME280;7822;48.146;11.576;2024-01-30T11:23:33;96466.09;;;13.82;51.25
15444;BME280;7822;48.146;11.576;2024-01-30T11:26:01;96460.06;;;13.82;51.22
15444;BME280;7822;48.146;11.576;2024-01-30T11:28:32;96457.44;;;13.82;51.25
15444;BME280;7822;48.146;11.576;2024-01-30T11:31:02;96456.50;;;13.83;51.16
15444;BME280;7822;48.146;11.576;2024-01-30T11:33:31;96450.47;;;13.82;51.11
15444;BME280;7822;48.146;11.576;2024-01-30T11:36:00;96448.78;;;13.81;51.22
15444;BME280;7822;48.146;11.576;2024-01-30T11:38:28;96453.06;;;13.82;51.29
15444;BME280;7822;48.146;11.576;2024-01-30T11:40:56;96448.69;;;13.83;51.35
15444;BME280;7822;48.146;11.576;2024-01-30T11:43:24;96446.16;;;13.81;51.36
15444;BME280;7822;48.146;11.576;2024-01-30T11:45:51;96447.00;;;13.82;51.38
15444;BME280;7822;48.146;11.576;2024-01-30T11:48:19;96447.84;;;13.82;51.32
15444;BME280;7822;48.146;11.576;2024-01-30T11:50:48;96447.97;;;13.81;51.29
15444;BME280;7822;48.146;11.576;2024-01-30T11:53:18;96441.78;;;13.82;51.55
15444;BME280;7822;48.146;11.576;2024-01-30T11:55:49;96440.88;;;13.83;51.34
15444;BME280;7822;48.146;11.576;2024-01-30T11:58:16;96441.78;;;13.82;51.39
15444;BME280;7822;48.146;11.576;2024-01-30T12:00:52;96439.19;;;13.82;51.45
15444;BME280;7822;48.146;11.576;2024-01-30T12:03:20;96441.78;;;13.82;51.19
15444;BME280;7822;48.146;11.576;2024-01-30T12:05:54;96434.81;;;13.82;51.66
15444;BME280;7822;48.146;11.576;2024-01-30T12:08:22;96433.03;;;13.83;51.69
15444;BME280;7822;48.146;11.576;2024-01-30T12:10:55;96424.38;;;13.82;51.65
15444;BME280;7822;48.146;11.576;2024-01-30T12:13:22;96433.88;;;13.83;51.60
15444;BME280;7822;48.146;11.576;2024-01-30T12:15:50;96425.22;;;13.83;51.55
15444;BME280;7822;48.146;11.576;2024-01-30T12:18:18;96419.16;;;13.82;51.65
15444;BME280;7822;48.146;11.576;2024-01-30T12:20:57;96419.16;;;13.82;51.54
15444;BME280;7822;48.146;11.576;2024-01-30T12:23:26;96411.34;;;13.82;51.54
15444;BME280;7822;48.146;11.576;2024-01-30T12:25:54;96416.44;;;13.84;51.47
15444;BME280;7822;48.146;11.576;2024-01-30T12:28:21;96407.88;;;13.82;51.38
15444;BME280;7822;48.146;11.576;2024-01-30T12:30:49;96406.97;;;13.83;51.52
15444;BME280;7822;48.146;11.576;2024-01-30T12:33:17;96405.28;;;13.82;51.84
15444;BME280;7822;48.146;11.576;2024-01-30T12:35:45;96408.72;;;13.82;51.41
15444;BME280;7822;48.146;11.576;2024-01-30T12:38:29;96410.41;;;13.83;51.66
15444;BME280;7822;48.146;11.576;2024-01-30T12:40:56;96401.75;;;13.83;51.70
15444;BME280;7822;48.146;11.576;2024-01-30T12:43:24;96403.50;;;13.82;51.42
15444;BME280;7822;48.146;11.576;2024-01-30T12:46:03;96398.28;;;13.82;51.61
15444;BME280;7822;48.146;11.576;2024-01-30T12:48:32;96395.69;;;13.82;51.67
15444;BME280;7822;48.146;11.576;2024-01-30T12:51:00;96393.91;;;13.83;51.78
15444;BME280;7822;48.146;11.576;2024-01-30T12:53:29;96394.75;;;13.83;51.50
15444;BME280;7822;48.146;11.576;2024-01-30T12:55:56;96393.91;;;13.83;51.60
15444;BME280;7822;48.146;11.576;2024-01-30T12:58:24;96384.31;;;13.83;51.46
15444;BME280;7822;48.146;11.576;2024-01-30T13:00:52;96381.81;;;13.82;51.84
15444;BME280;7822;48.146;11.576;2024-01-30T13:03:20;96381.72;;;13.83;51.75
15444;BME280;7822;48.146;11.576;2024-01-30T13:05:48;96374.81;;;13.82;51.81